createdAt,value
2017-03-16T00:00:17.047Z,86.49
2017-03-16T00:01:26.253Z,86.87
2017-03-16T00:02:35.136Z,86.3
2017-03-16T00:03:44.023Z,86.59
2017-03-16T00:04:52.907Z,86.87
2017-03-16T00:06:01.942Z,87.25
2017-03-16T00:07:11.474Z,87.16
2017-03-16T00:08:20.357Z,86.87
2017-03-16T00:09:29.241Z,86.68
2017-03-16T00:10:38.484Z,87.16
2017-03-16T00:11:47.892Z,86.97
2017-03-16T00:12:57.422Z,87.06
2017-03-16T00:14:06.305Z,86.87
2017-03-16T00:15:15.513Z,86.68
2017-03-16T00:16:24.399Z,87.25
2017-03-16T00:17:33.381Z,87.35
2017-03-16T00:18:42.587Z,87.16
2017-03-16T00:19:51.468Z,87.35
2017-03-16T00:21:00.356Z,87.63
2017-03-16T00:22:09.619Z,87.25
2017-03-16T00:23:18.548Z,87.45
2017-03-16T00:24:27.429Z,87.92
2017-03-16T00:25:36.312Z,87.63
2017-03-16T00:26:45.198Z,88.1
2017-03-16T00:27:54.084Z,88.01
2017-03-16T00:29:03.340Z,88.1
2017-03-16T00:30:12.222Z,88.1
2017-03-16T00:31:21.430Z,87.54
2017-03-16T00:32:30.316Z,88.2
2017-03-16T00:33:39.199Z,87.73
2017-03-16T00:34:48.087Z,88.1
2017-03-16T00:35:56.969Z,88.1
2017-03-16T00:37:05.853Z,88.2
2017-03-16T00:38:15.059Z,88.2
2017-03-16T00:39:23.944Z,87.82
2017-03-16T00:40:33.080Z,88.29
2017-03-16T00:41:42.616Z,88.1
2017-03-16T00:42:51.827Z,88.96
2017-03-16T00:44:01.042Z,88.39
2017-03-16T00:45:09.926Z,88.39
2017-03-16T00:46:19.010Z,87.73
2017-03-16T00:47:27.891Z,87.63
2017-03-16T00:48:36.772Z,88.39
2017-03-16T00:49:45.657Z,87.63
2017-03-16T00:50:54.864Z,87.92
2017-03-16T00:52:03.798Z,88.96
2017-03-16T00:53:13.005Z,88.77
2017-03-16T00:54:21.885Z,89.53
2017-03-16T00:55:30.766Z,89.53
2017-03-16T00:56:39.649Z,90
2017-03-16T00:57:48.685Z,89.15
2017-03-16T00:58:57.569Z,88.82
2017-03-16T01:00:06.459Z,89.34
2017-03-16T01:01:15.343Z,88.87
2017-03-16T01:02:24.228Z,88.77
2017-03-16T01:03:33.586Z,88.92
2017-03-16T01:04:42.468Z,89.25
2017-03-16T01:05:51.351Z,89.15
2017-03-16T01:07:00.241Z,89.34
2017-03-16T01:08:09.125Z,89.43
2017-03-16T01:09:18.006Z,89.34
2017-03-16T01:10:27.218Z,88.96
2017-03-16T01:11:36.104Z,89.62
2017-03-16T01:12:45.312Z,89.34
2017-03-16T01:13:54.193Z,88.96
2017-03-16T01:15:03.455Z,88.87
2017-03-16T01:16:12.343Z,88.96
2017-03-16T01:17:21.549Z,89.11
2017-03-16T01:18:30.433Z,89.34
2017-03-16T01:19:39.640Z,88.77
2017-03-16T01:20:49.174Z,89.06
2017-03-16T01:21:58.385Z,89.06
2017-03-16T01:23:07.591Z,89.29
2017-03-16T01:24:17.458Z,88.82
2017-03-16T01:25:26.668Z,89.11
2017-03-16T01:26:36.025Z,88.82
2017-03-16T01:27:45.231Z,88.92
2017-03-16T01:28:54.775Z,89.39
2017-03-16T01:30:03.986Z,89.58
2017-03-16T01:31:12.869Z,89.29
2017-03-16T01:32:21.902Z,89.48
2017-03-16T01:33:30.786Z,89.58
2017-03-16T01:34:39.998Z,89.48
2017-03-16T01:35:49.204Z,89.77
2017-03-16T01:36:58.090Z,89.48
2017-03-16T01:38:07.450Z,89.11
2017-03-16T01:39:16.655Z,89.48
2017-03-16T01:40:25.543Z,89.58
2017-03-16T01:41:34.426Z,89.96
2017-03-16T01:42:43.313Z,89.86
2017-03-16T01:43:52.245Z,90.15
2017-03-16T01:45:01.451Z,90.15
2017-03-16T01:46:10.661Z,90.05
2017-03-16T01:47:19.876Z,89.86
2017-03-16T01:48:28.760Z,89.96
2017-03-16T01:49:38.069Z,89.96
2017-03-16T01:50:47.279Z,89.86
2017-03-16T01:51:56.483Z,89.86
2017-03-16T01:53:05.689Z,90.34
2017-03-16T01:54:14.896Z,90.24
2017-03-16T01:55:24.353Z,90.05
2017-03-16T01:56:33.242Z,89.96
2017-03-16T01:57:42.129Z,89.96
2017-03-16T01:58:51.674Z,89.48
2017-03-16T02:00:01.539Z,89.96
2017-03-16T02:01:10.800Z,89.29
2017-03-16T02:02:19.681Z,90.15
2017-03-16T02:03:29.217Z,90.05
2017-03-16T02:04:38.099Z,89.96
2017-03-16T02:05:47.308Z,90.15
2017-03-16T02:06:56.344Z,89.48
2017-03-16T02:08:05.553Z,89.48
2017-03-16T02:09:14.765Z,89.77
2017-03-16T02:10:24.295Z,90.15
2017-03-16T02:11:33.502Z,90.15
2017-03-16T02:12:42.540Z,89.86
2017-03-16T02:13:51.747Z,90.24
2017-03-16T02:15:01.616Z,89.96
2017-03-16T02:16:10.840Z,89.86
2017-03-16T02:17:19.723Z,89.77
2017-03-16T02:18:29.181Z,89.39
2017-03-16T02:19:39.036Z,89.96
2017-03-16T02:20:48.569Z,89.67
2017-03-16T02:21:57.781Z,90.15
2017-03-16T02:23:06.668Z,90.05
2017-03-16T02:24:16.507Z,89.86
2017-03-16T02:25:25.396Z,90.15
2017-03-16T02:26:34.929Z,89.96
2017-03-16T02:27:44.135Z,89.86
2017-03-16T02:28:53.668Z,89.96
2017-03-16T02:30:02.926Z,89.67
2017-03-16T02:31:11.811Z,90.15
2017-03-16T02:32:20.694Z,89.67
2017-03-16T02:33:29.903Z,90.24
2017-03-16T02:34:39.116Z,89.86
2017-03-16T02:35:48.149Z,89.86
2017-03-16T02:36:57.356Z,89.48
2017-03-16T02:38:06.243Z,90.05
2017-03-16T02:39:16.102Z,89.96
2017-03-16T02:40:24.984Z,90.15
2017-03-16T02:41:34.341Z,90.05
2017-03-16T02:42:43.225Z,89.86
2017-03-16T02:43:52.109Z,89.96
2017-03-16T02:45:01.643Z,89.96
2017-03-16T02:46:10.525Z,90.05
2017-03-16T02:47:19.557Z,90.15
2017-03-16T02:48:28.447Z,89.86
2017-03-16T02:49:37.653Z,90.24
2017-03-16T02:50:46.538Z,90.34
2017-03-16T02:51:55.423Z,90.15
2017-03-16T02:53:04.784Z,90.24
2017-03-16T02:54:13.996Z,90.24
2017-03-16T02:55:23.213Z,90.91
2017-03-16T02:56:32.099Z,90.15
2017-03-16T02:57:41.312Z,89.96
2017-03-16T02:58:50.670Z,90.34
2017-03-16T02:59:59.879Z,90.43
2017-03-16T03:01:08.760Z,90.91
2017-03-16T03:02:17.966Z,90.53
2017-03-16T03:03:27.189Z,90.81
2017-03-16T03:04:36.179Z,89.77
2017-03-16T03:05:45.386Z,90.43
2017-03-16T03:06:54.921Z,90.81
2017-03-16T03:08:03.806Z,89.96
2017-03-16T03:09:13.012Z,90.62
2017-03-16T03:10:23.079Z,90.43
2017-03-16T03:11:31.974Z,90.43
2017-03-16T03:12:41.178Z,91
2017-03-16T03:13:50.711Z,90.34
2017-03-16T03:14:59.924Z,90.05
2017-03-16T03:16:09.180Z,90.1
2017-03-16T03:17:18.064Z,89.72
2017-03-16T03:18:26.956Z,90.01
2017-03-16T03:19:36.162Z,90.2
2017-03-16T03:20:45.370Z,89.82
2017-03-16T03:21:54.404Z,90.1
2017-03-16T03:23:03.611Z,89.72
2017-03-16T03:24:12.499Z,89.82
2017-03-16T03:25:22.030Z,89.34
2017-03-16T03:26:30.921Z,89.91
2017-03-16T03:27:40.100Z,89.82
2017-03-16T03:28:48.980Z,90.01
2017-03-16T03:29:57.888Z,89.82
2017-03-16T03:31:07.108Z,89.82
2017-03-16T03:32:16.317Z,89.82
2017-03-16T03:33:25.349Z,90.1
2017-03-16T03:34:34.232Z,89.91
2017-03-16T03:35:43.439Z,89.53
2017-03-16T03:36:52.320Z,89.91
2017-03-16T03:38:01.205Z,90.1
2017-03-16T03:39:10.188Z,90.29
2017-03-16T03:40:19.395Z,90.29
2017-03-16T03:41:28.611Z,90.39
2017-03-16T03:42:37.502Z,90.58
2017-03-16T03:43:46.381Z,90.77
2017-03-16T03:44:55.741Z,90.95
2017-03-16T03:46:04.626Z,91.33
2017-03-16T03:47:13.830Z,91.24
2017-03-16T03:48:22.715Z,91.52
2017-03-16T03:49:32.244Z,91.24
2017-03-16T03:50:41.507Z,91.24
2017-03-16T03:51:51.044Z,90.86
2017-03-16T03:53:00.253Z,91.24
2017-03-16T03:54:09.138Z,91.33
2017-03-16T03:55:18.677Z,91.24
2017-03-16T03:56:27.937Z,91.24
2017-03-16T03:57:36.822Z,91.52
2017-03-16T03:58:45.708Z,91.71
2017-03-16T03:59:55.244Z,91.05
2017-03-16T04:01:04.146Z,91.71
2017-03-16T04:02:13.182Z,91.05
2017-03-16T04:03:22.736Z,90.77
2017-03-16T04:04:31.953Z,90.86
2017-03-16T04:05:41.176Z,90.95
2017-03-16T04:06:50.079Z,91.14
2017-03-16T04:08:00.013Z,91.52
2017-03-16T04:09:09.555Z,91.52
2017-03-16T04:10:18.765Z,91.43
2017-03-16T04:11:27.973Z,91.43
2017-03-16T04:12:36.852Z,91.9
2017-03-16T04:13:46.208Z,91.71
2017-03-16T04:14:55.749Z,91.81
2017-03-16T04:16:05.281Z,91.14
2017-03-16T04:17:14.164Z,91.33
2017-03-16T04:18:23.054Z,91.52
2017-03-16T04:19:32.738Z,91.52
2017-03-16T04:20:41.944Z,91.24
2017-03-16T04:21:50.828Z,91.62
2017-03-16T04:22:59.710Z,91.9
2017-03-16T04:24:08.595Z,91.62
2017-03-16T04:25:17.631Z,91.52
2017-03-16T04:26:26.842Z,91.05
2017-03-16T04:27:36.047Z,91.62
2017-03-16T04:28:45.928Z,91.33
2017-03-16T04:29:55.143Z,91.1
2017-03-16T04:31:05.076Z,91.67
2017-03-16T04:32:14.285Z,91.38
2017-03-16T04:33:23.174Z,91.14
2017-03-16T04:34:32.716Z,90.91
2017-03-16T04:35:41.922Z,90.91
2017-03-16T04:36:51.605Z,91
2017-03-16T04:38:00.812Z,91
2017-03-16T04:39:09.690Z,90.72
2017-03-16T04:40:18.899Z,90.06
2017-03-16T04:41:28.107Z,90.06
2017-03-16T04:42:37.464Z,90.58
2017-03-16T04:43:46.670Z,90.72
2017-03-16T04:44:55.909Z,90.25
2017-03-16T04:46:05.117Z,91.24
2017-03-16T04:47:14.002Z,91.29
2017-03-16T04:48:22.987Z,90.95
2017-03-16T04:49:31.874Z,90.58
2017-03-16T04:50:41.079Z,91.24
2017-03-16T04:51:49.967Z,90.86
2017-03-16T04:52:58.860Z,91.33
2017-03-16T04:54:08.468Z,91.33
2017-03-16T04:55:18.328Z,91.43
2017-03-16T04:56:27.210Z,92
2017-03-16T04:57:36.420Z,91.9
2017-03-16T04:58:45.300Z,92.47
2017-03-16T04:59:55.084Z,92
2017-03-16T05:01:04.293Z,92.76
2017-03-16T05:02:13.177Z,92.57
2017-03-16T05:03:22.714Z,92.47
2017-03-16T05:04:31.599Z,92.94
2017-03-16T05:05:40.635Z,93.04
2017-03-16T05:06:49.518Z,92.57
2017-03-16T05:07:59.052Z,92.85
2017-03-16T05:09:08.264Z,93.04
2017-03-16T05:10:17.803Z,93.61
2017-03-16T05:11:27.065Z,93.51
2017-03-16T05:12:35.945Z,92.66
2017-03-16T05:13:45.161Z,92.85
2017-03-16T05:14:55.022Z,92.66
2017-03-16T05:16:04.237Z,92.57
2017-03-16T05:17:13.272Z,92.47
2017-03-16T05:18:22.808Z,92.94
2017-03-16T05:19:32.999Z,92.76
2017-03-16T05:20:42.535Z,92.57
2017-03-16T05:21:51.416Z,92.85
2017-03-16T05:23:00.350Z,92.47
2017-03-16T05:24:10.219Z,92.76
2017-03-16T05:25:20.081Z,92.28
2017-03-16T05:26:29.302Z,93.04
2017-03-16T05:27:38.838Z,93.42
2017-03-16T05:28:48.528Z,92.94
2017-03-16T05:29:58.063Z,93.04
2017-03-16T05:31:06.947Z,93.61
2017-03-16T05:32:15.832Z,93.32
2017-03-16T05:33:25.049Z,93.32
2017-03-16T05:34:35.281Z,93.61
2017-03-16T05:35:44.826Z,93.61
2017-03-16T05:36:53.710Z,93.32
2017-03-16T05:38:02.590Z,93.61
2017-03-16T05:39:11.804Z,93.42
2017-03-16T05:40:21.338Z,93.61
2017-03-16T05:41:30.222Z,93.61
2017-03-16T05:42:39.432Z,93.42
2017-03-16T05:43:48.328Z,93.7
2017-03-16T05:44:57.865Z,93.04
2017-03-16T05:46:07.052Z,93.32
2017-03-16T05:47:15.940Z,93.51
2017-03-16T05:48:25.476Z,92.94
2017-03-16T05:49:35.338Z,93.61
2017-03-16T05:50:45.209Z,93.61
2017-03-16T05:51:54.894Z,92.94
2017-03-16T05:53:04.110Z,93.13
2017-03-16T05:54:13.379Z,93.32
2017-03-16T05:55:22.601Z,93.61
2017-03-16T05:56:31.485Z,93.04
2017-03-16T05:57:40.849Z,93.32
2017-03-16T05:58:50.392Z,93.8
2017-03-16T06:00:00.260Z,93.23
2017-03-16T06:01:09.151Z,93.89
2017-03-16T06:02:18.718Z,93.32
2017-03-16T06:03:28.233Z,93.13
2017-03-16T06:04:37.463Z,93.04
2017-03-16T06:05:46.342Z,92.76
2017-03-16T06:06:55.225Z,92.85
2017-03-16T06:08:04.136Z,92.28
2017-03-16T06:10:04.973Z,92.28
2017-03-16T06:11:14.181Z,92.47
2017-03-16T06:12:23.385Z,92.66
2017-03-16T06:13:32.276Z,92.47
2017-03-16T06:14:41.639Z,92.57
2017-03-16T06:15:50.852Z,92.38
2017-03-16T06:17:00.067Z,92.57
2017-03-16T06:18:08.956Z,92.57
2017-03-16T06:19:18.173Z,92.38
2017-03-16T06:20:27.641Z,92.47
2017-03-16T06:21:36.852Z,92.85
2017-03-16T06:22:45.744Z,92.09
2017-03-16T06:23:55.935Z,92.09
2017-03-16T06:25:05.146Z,92.33
2017-03-16T06:26:14.290Z,92.57
2017-03-16T06:27:23.823Z,92.61
2017-03-16T06:28:33.036Z,92.23
2017-03-16T06:29:42.581Z,92.33
2017-03-16T06:30:51.498Z,92.23
2017-03-16T06:32:00.534Z,91.85
2017-03-16T06:33:09.421Z,91.66
2017-03-16T06:34:18.968Z,91.66
2017-03-16T06:35:28.508Z,91.85
2017-03-16T06:36:37.399Z,91.76
2017-03-16T06:37:46.437Z,91.57
2017-03-16T06:38:56.300Z,91.19
2017-03-16T06:40:05.841Z,91.38
2017-03-16T06:41:15.061Z,91.38
2017-03-16T06:42:24.277Z,91
2017-03-16T06:43:33.571Z,90.91
2017-03-16T06:44:42.785Z,90.81
2017-03-16T06:45:52.330Z,90.62
2017-03-16T06:47:01.865Z,90.81
2017-03-16T06:48:10.755Z,90.91
2017-03-16T06:49:20.821Z,90.19
2017-03-16T06:50:30.680Z,89.53
2017-03-16T06:51:39.573Z,89.15
2017-03-16T06:52:48.472Z,89.62
2017-03-16T06:53:58.346Z,89.62
2017-03-16T06:55:08.307Z,89.72
2017-03-16T06:56:17.200Z,89.53
2017-03-16T06:57:26.413Z,89.62
2017-03-16T06:58:35.962Z,88.87
2017-03-16T06:59:45.831Z,88.87
2017-03-16T07:00:56.047Z,89.06
2017-03-16T07:02:04.934Z,89.06
2017-03-16T07:03:14.148Z,89.06
2017-03-16T07:04:24.020Z,88.77
2017-03-16T07:05:33.885Z,87.82
2017-03-16T07:06:42.923Z,88.1
2017-03-16T07:07:52.146Z,87.63
2017-03-16T07:09:01.694Z,87.73
2017-03-16T07:10:11.561Z,87.82
2017-03-16T07:11:20.776Z,87.06
2017-03-16T07:12:30.136Z,87.35
2017-03-16T07:13:39.353Z,86.87
2017-03-16T07:14:48.898Z,86.68
2017-03-16T07:15:58.764Z,86.4
2017-03-16T07:17:07.660Z,86.78
2017-03-16T07:18:16.853Z,85.74
2017-03-16T07:19:26.065Z,85.78
2017-03-16T07:20:34.947Z,86.25
2017-03-16T07:21:43.838Z,85.97
2017-03-16T07:22:52.729Z,85.78
2017-03-16T07:24:02.697Z,85.78
2017-03-16T07:25:11.587Z,85.78
2017-03-16T07:26:20.805Z,86.16
2017-03-16T07:27:30.024Z,86.25
2017-03-16T07:28:39.565Z,86.07
2017-03-16T07:29:48.934Z,86.35
2017-03-16T07:30:58.799Z,85.87
2017-03-16T07:32:08.016Z,86.35
2017-03-16T07:33:17.560Z,85.78
2017-03-16T07:34:27.434Z,85.59
2017-03-16T07:35:36.522Z,85.78
2017-03-16T07:36:45.413Z,85.49
2017-03-16T07:37:54.301Z,85.3
2017-03-16T07:39:03.843Z,84.92
2017-03-16T07:40:12.738Z,85.11
2017-03-16T07:41:22.528Z,85.3
2017-03-16T07:42:31.419Z,85.02
2017-03-16T07:43:40.968Z,85.11
2017-03-16T07:44:50.508Z,85.49
2017-03-16T07:45:59.396Z,85.02
2017-03-16T07:47:08.757Z,84.92
2017-03-16T07:48:17.640Z,84.83
2017-03-16T07:49:27.521Z,84.83
2017-03-16T07:50:36.735Z,84.74
2017-03-16T07:51:45.623Z,84.97
2017-03-16T07:52:54.839Z,84.49
2017-03-16T07:54:05.034Z,84.78
2017-03-16T07:55:14.898Z,84.59
2017-03-16T07:56:24.434Z,84.3
2017-03-16T07:57:33.649Z,84.3
2017-03-16T07:58:43.621Z,83.73
2017-03-16T07:59:53.166Z,84.4
2017-03-16T08:01:02.710Z,83.73
2017-03-16T08:02:11.924Z,84.21
2017-03-16T08:03:20.821Z,84.49
2017-03-16T08:04:30.613Z,84.01
2017-03-16T08:05:39.516Z,83.73
2017-03-16T08:06:48.727Z,83.92
2017-03-16T08:07:58.269Z,83.64
2017-03-16T08:09:07.815Z,83.54
2017-03-16T08:10:17.934Z,82.78
2017-03-16T08:11:27.148Z,83.26
2017-03-16T08:12:36.041Z,82.12
2017-03-16T08:13:44.933Z,81.97
2017-03-16T08:14:54.803Z,81.97
2017-03-16T08:16:04.530Z,81.21
2017-03-16T08:17:13.414Z,81.12
2017-03-16T08:18:22.626Z,81.3
2017-03-16T08:19:32.178Z,81.12
2017-03-16T08:20:41.391Z,80.93
2017-03-16T08:21:50.854Z,80.74
2017-03-16T08:23:00.724Z,79.88
2017-03-16T08:24:10.264Z,79.22
2017-03-16T08:25:19.474Z,79.12
2017-03-16T08:26:28.686Z,78.64
2017-03-16T08:27:37.726Z,78.55
2017-03-16T08:28:46.619Z,78.27
2017-03-16T08:29:55.511Z,77.92
2017-03-16T08:31:04.401Z,77.83
2017-03-16T08:32:13.622Z,77.92
2017-03-16T08:33:22.883Z,77.36
2017-03-16T08:34:31.768Z,77.26
2017-03-16T08:35:40.663Z,77.26
2017-03-16T08:36:50.204Z,76.5
2017-03-16T08:37:59.097Z,75.55
2017-03-16T08:39:08.237Z,76.4
2017-03-16T08:40:17.123Z,75.84
2017-03-16T08:41:26.011Z,76.03
2017-03-16T08:42:35.226Z,75.93
2017-03-16T08:43:44.113Z,75.64
2017-03-16T08:44:53.350Z,74.22
2017-03-16T08:46:02.566Z,74.41
2017-03-16T08:47:12.105Z,74.41
2017-03-16T08:48:21.322Z,74.54
2017-03-16T08:49:30.216Z,73.84
2017-03-16T08:50:39.906Z,73.88
2017-03-16T08:51:49.126Z,74.07
2017-03-16T08:52:58.667Z,74.16
2017-03-16T08:54:07.549Z,73.69
2017-03-16T08:55:16.439Z,73.59
2017-03-16T08:56:26.226Z,73.3
2017-03-16T08:57:35.114Z,73.4
2017-03-16T08:58:44.002Z,73.02
2017-03-16T08:59:52.888Z,72.83
2017-03-16T09:01:01.780Z,72.35
2017-03-16T09:02:10.821Z,72.55
2017-03-16T09:03:20.032Z,72.26
2017-03-16T09:04:28.922Z,72.07
2017-03-16T09:05:37.809Z,72.07
2017-03-16T09:06:46.698Z,71.25
2017-03-16T09:07:55.974Z,71.25
2017-03-16T09:09:04.864Z,70.87
2017-03-16T09:10:13.757Z,70.39
2017-03-16T09:11:22.974Z,70.68
2017-03-16T09:12:31.863Z,70.49
2017-03-16T09:13:41.053Z,70.58
2017-03-16T09:14:50.269Z,70.58
2017-03-16T09:15:59.159Z,70.3
2017-03-16T09:17:08.708Z,70.01
2017-03-16T09:18:17.924Z,69.44
2017-03-16T09:19:27.768Z,69.73
2017-03-16T09:20:36.981Z,70.77
2017-03-16T09:21:46.195Z,70.01
2017-03-16T09:22:55.414Z,69.38
2017-03-16T09:24:04.307Z,68.81
2017-03-16T09:25:13.347Z,68.9
2017-03-16T09:26:22.236Z,67.76
2017-03-16T09:27:31.132Z,67.47
2017-03-16T09:28:40.344Z,67.1
2017-03-16T09:29:49.232Z,67.57
2017-03-16T09:30:58.513Z,66.33
2017-03-16T09:32:08.067Z,65.38
2017-03-16T09:33:16.956Z,65.03
2017-03-16T09:34:25.845Z,65.51
2017-03-16T09:35:35.060Z,65.13
2017-03-16T09:36:44.202Z,64.65
2017-03-16T09:37:53.128Z,64.56
2017-03-16T09:39:02.017Z,63.7
2017-03-16T09:40:11.233Z,63.32
2017-03-16T09:41:20.125Z,63.13
2017-03-16T09:42:29.492Z,63.7
2017-03-16T09:43:38.707Z,64.84
2017-03-16T09:44:47.632Z,65.51
2017-03-16T09:45:56.850Z,64.94
2017-03-16T09:47:05.747Z,65.32
2017-03-16T09:48:14.786Z,64.87
2017-03-16T09:49:24.000Z,65.55
2017-03-16T09:50:32.897Z,65.45
2017-03-16T09:51:41.789Z,64.59
2017-03-16T09:52:50.682Z,64.12
2017-03-16T09:54:00.152Z,63.83
2017-03-16T09:55:09.045Z,63.64
2017-03-16T09:56:17.938Z,63.92
2017-03-16T09:57:27.152Z,64.69
2017-03-16T09:58:36.050Z,63.92
2017-03-16T09:59:45.091Z,63.83
2017-03-16T10:00:54.324Z,63.83
2017-03-16T10:02:03.539Z,63.73
2017-03-16T10:03:12.769Z,63.26
2017-03-16T10:04:21.659Z,63.35
2017-03-16T10:05:30.596Z,63.54
2017-03-16T10:06:39.486Z,63.39
2017-03-16T10:07:48.697Z,63.48
2017-03-16T10:08:57.587Z,63.48
2017-03-16T10:10:06.481Z,63.39
2017-03-16T10:11:15.746Z,64.05
2017-03-16T10:12:24.636Z,63.96
2017-03-16T10:13:33.558Z,64.43
2017-03-16T10:14:42.772Z,64.81
2017-03-16T10:15:51.985Z,65.39
2017-03-16T10:17:00.981Z,64.81
2017-03-16T10:18:10.195Z,64.81
2017-03-16T10:19:19.407Z,65.1
2017-03-16T10:20:28.618Z,64.62
2017-03-16T10:21:38.162Z,64.91
2017-03-16T10:22:47.624Z,65.67
2017-03-16T10:23:56.838Z,64.43
2017-03-16T10:25:05.732Z,64.43
2017-03-16T10:26:15.047Z,65.1
2017-03-16T10:27:24.258Z,64.72
2017-03-16T10:28:33.666Z,64.28
2017-03-16T10:29:42.556Z,63.89
2017-03-16T10:30:51.782Z,64.18
2017-03-16T10:32:01.000Z,64.37
2017-03-16T10:33:09.892Z,64.47
2017-03-16T10:34:19.356Z,63.23
2017-03-16T10:35:28.245Z,63.99
2017-03-16T10:36:37.796Z,63.99
2017-03-16T10:37:47.340Z,63.42
2017-03-16T10:38:56.232Z,63.6
2017-03-16T10:40:05.443Z,63.8
2017-03-16T10:41:14.337Z,63.32
2017-03-16T10:42:23.552Z,63.7
2017-03-16T10:43:32.766Z,63.32
2017-03-16T10:44:42.309Z,63.42
2017-03-16T10:45:51.828Z,63.42
2017-03-16T10:47:01.041Z,62.56
2017-03-16T10:48:09.937Z,63.32
2017-03-16T10:49:19.156Z,63.23
2017-03-16T10:50:28.366Z,63.04
2017-03-16T10:51:37.258Z,63.13
2017-03-16T10:52:46.475Z,62.49
2017-03-16T10:53:56.024Z,62.49
2017-03-16T10:55:04.917Z,62.4
2017-03-16T10:56:14.134Z,62.49
2017-03-16T10:57:23.707Z,62.3
2017-03-16T10:58:32.602Z,61.83
2017-03-16T10:59:42.143Z,62.59
2017-03-16T11:00:51.045Z,62.4
2017-03-16T11:02:00.261Z,62.3
2017-03-16T11:03:09.824Z,62.21
2017-03-16T11:04:18.714Z,61.47
2017-03-16T11:05:27.607Z,61.57
2017-03-16T11:06:36.500Z,61.57
2017-03-16T11:07:45.389Z,60.81
2017-03-16T11:08:54.328Z,60.71
2017-03-16T11:10:03.222Z,60.9
2017-03-16T11:11:12.112Z,61.19
2017-03-16T11:12:21.004Z,60.71
2017-03-16T11:13:29.899Z,60.9
2017-03-16T11:14:39.166Z,59.76
2017-03-16T11:15:48.382Z,60.24
2017-03-16T11:16:57.600Z,60.42
2017-03-16T11:18:06.493Z,60.14
2017-03-16T11:19:15.392Z,60.24
2017-03-16T11:20:24.437Z,60.24
2017-03-16T11:21:33.329Z,59.19
2017-03-16T11:22:42.227Z,59.09
2017-03-16T11:23:51.441Z,59.85
2017-03-16T11:25:00.332Z,59.98
2017-03-16T11:26:09.703Z,58.93
2017-03-16T11:27:18.599Z,58.93
2017-03-16T11:28:28.177Z,58.45
2017-03-16T11:29:37.068Z,58.93
2017-03-16T11:30:46.289Z,58.45
2017-03-16T11:31:55.758Z,58.16
2017-03-16T11:33:04.648Z,57.21
2017-03-16T11:34:13.541Z,57.21
2017-03-16T11:35:22.758Z,57.5
2017-03-16T11:36:31.650Z,57.97
2017-03-16T11:37:40.797Z,58.07
2017-03-16T11:38:49.687Z,58.16
2017-03-16T11:39:58.578Z,58.36
2017-03-16T11:41:07.476Z,58.26
2017-03-16T11:42:16.369Z,58.16
2017-03-16T11:43:25.262Z,57.87
2017-03-16T11:44:34.157Z,58.16
2017-03-16T11:45:43.049Z,57.68
2017-03-16T11:46:51.941Z,56.92
2017-03-16T11:48:00.836Z,57.21
2017-03-16T11:49:09.778Z,57.59
2017-03-16T11:50:18.992Z,57.4
2017-03-16T11:51:27.884Z,56.38
2017-03-16T11:52:36.823Z,56.67
2017-03-16T11:53:45.841Z,56.95
2017-03-16T11:54:54.733Z,56.76
2017-03-16T11:56:03.952Z,56.57
2017-03-16T11:57:12.856Z,56.57
2017-03-16T11:58:21.799Z,55.99
2017-03-16T11:59:30.729Z,56.18
2017-03-16T12:00:39.975Z,56.09
2017-03-16T12:01:48.877Z,56.28
2017-03-16T12:02:58.432Z,55.8
2017-03-16T12:04:07.324Z,56.28
2017-03-16T12:05:16.556Z,56.09
2017-03-16T12:06:25.704Z,56.09
2017-03-16T12:07:34.594Z,56.38
2017-03-16T12:08:43.815Z,56.09
2017-03-16T12:09:52.727Z,56.12
2017-03-16T12:11:01.618Z,56.02
2017-03-16T12:12:10.764Z,55.16
2017-03-16T12:13:20.309Z,54.59
2017-03-16T12:14:29.205Z,54.71
2017-03-16T12:15:38.118Z,54.02
2017-03-16T12:16:47.343Z,53.94
2017-03-16T12:17:56.448Z,53.94
2017-03-16T12:19:06.329Z,54.02
2017-03-16T12:20:15.222Z,54.14
2017-03-16T12:21:24.135Z,53.75
2017-03-16T12:22:33.404Z,53.59
2017-03-16T12:23:42.655Z,53.02
2017-03-16T12:24:51.556Z,52.83
2017-03-16T12:26:00.455Z,53.4
2017-03-16T12:27:09.355Z,53.94
2017-03-16T12:28:18.608Z,53.88
2017-03-16T12:29:27.755Z,53.11
2017-03-16T12:30:36.657Z,53.11
2017-03-16T12:31:45.894Z,51.87
2017-03-16T12:32:55.118Z,51.39
2017-03-16T12:34:04.028Z,52.34
2017-03-16T12:35:13.031Z,52.44
2017-03-16T12:36:21.933Z,52.73
2017-03-16T12:37:30.836Z,52.15
2017-03-16T12:38:39.746Z,52.54
2017-03-16T12:39:48.691Z,52.92
2017-03-16T12:40:57.650Z,52.28
2017-03-16T12:42:06.556Z,52.09
2017-03-16T12:43:15.498Z,52.85
2017-03-16T12:44:24.434Z,53.2
2017-03-16T12:45:33.671Z,52.83
2017-03-16T12:46:43.225Z,52.44
2017-03-16T12:47:52.453Z,52.73
2017-03-16T12:49:01.360Z,52.63
2017-03-16T12:50:10.257Z,52.92
2017-03-16T12:51:19.169Z,52.44
2017-03-16T12:52:28.304Z,51.89
2017-03-16T12:53:37.263Z,51.79
2017-03-16T12:54:46.167Z,50.84
2017-03-16T12:55:55.394Z,50.56
2017-03-16T12:57:04.298Z,51.13
2017-03-16T12:58:13.907Z,50.65
2017-03-16T12:59:23.137Z,50.17
2017-03-16T13:00:32.052Z,49.4
2017-03-16T13:01:41.294Z,49.43
2017-03-16T13:02:50.207Z,49.33
2017-03-16T13:03:59.242Z,49.52
2017-03-16T13:05:08.524Z,49.43
2017-03-16T13:06:17.752Z,50
2017-03-16T13:07:26.980Z,50
2017-03-16T13:08:36.238Z,49.62
2017-03-16T13:09:45.610Z,48.57
2017-03-16T13:10:54.516Z,47.53
2017-03-16T13:12:03.746Z,46.94
2017-03-16T13:13:12.653Z,47.32
2017-03-16T13:14:21.558Z,47.32
2017-03-16T13:15:30.719Z,48.57
2017-03-16T13:16:39.637Z,48.83
2017-03-16T13:17:48.879Z,49.33
2017-03-16T13:18:58.115Z,49.24
2017-03-16T13:20:07.341Z,49.24
2017-03-16T13:21:16.724Z,49.62
2017-03-16T13:22:25.960Z,48.78
2017-03-16T13:23:34.859Z,48.4
2017-03-16T13:24:44.235Z,48.88
2017-03-16T13:25:53.796Z,49.45
2017-03-16T13:27:02.699Z,49.45
2017-03-16T13:28:11.600Z,50.2
2017-03-16T13:29:20.504Z,50.2
2017-03-16T13:30:29.732Z,50.29
2017-03-16T13:31:38.966Z,50.03
2017-03-16T13:32:48.675Z,49.91
2017-03-16T13:33:57.587Z,50
2017-03-16T13:35:06.525Z,49.91
2017-03-16T13:36:15.733Z,49.33
2017-03-16T13:37:24.639Z,49.43
2017-03-16T13:38:34.013Z,49.36
2017-03-16T13:39:42.917Z,49.65
2017-03-16T13:40:51.824Z,49.36
2017-03-16T13:42:01.053Z,50.03
2017-03-16T13:43:09.956Z,50.77
2017-03-16T13:44:19.065Z,50.87
2017-03-16T13:45:27.962Z,51.15
2017-03-16T13:46:37.189Z,50.51
2017-03-16T13:47:46.092Z,50.6
2017-03-16T13:48:54.989Z,50.41
2017-03-16T13:50:04.739Z,50.41
2017-03-16T13:51:13.644Z,50.12
2017-03-16T13:52:22.544Z,48.88
2017-03-16T13:53:31.445Z,49.38
2017-03-16T13:54:40.345Z,49
2017-03-16T13:55:49.828Z,48.8
2017-03-16T13:56:59.054Z,48.61
2017-03-16T13:58:08.283Z,49.07
2017-03-16T13:59:17.187Z,49.19
2017-03-16T14:00:26.740Z,48.52
2017-03-16T14:01:36.346Z,47.46
2017-03-16T14:02:45.258Z,47.75
2017-03-16T14:03:54.160Z,47.49
2017-03-16T14:05:03.066Z,47.49
2017-03-16T14:06:11.981Z,47.2
2017-03-16T14:07:21.046Z,46.36
2017-03-16T14:08:29.952Z,45.68
2017-03-16T14:09:39.181Z,45.59
2017-03-16T14:10:48.420Z,45.68
2017-03-16T14:11:57.653Z,45.98
2017-03-16T14:13:06.709Z,45.11
2017-03-16T14:14:15.947Z,45.3
2017-03-16T14:15:25.180Z,45.59
2017-03-16T14:16:34.416Z,45.14
2017-03-16T14:17:43.654Z,45.14
2017-03-16T14:18:52.811Z,45.81
2017-03-16T14:20:01.718Z,45.71
2017-03-16T14:21:10.967Z,46.17
2017-03-16T14:22:20.203Z,45.88
2017-03-16T14:23:29.110Z,45.71
2017-03-16T14:24:38.490Z,45.61
2017-03-16T14:25:47.729Z,45.23
2017-03-16T14:26:56.963Z,45.61
2017-03-16T14:28:05.882Z,45.52
2017-03-16T14:29:14.793Z,46.09
2017-03-16T14:30:23.855Z,45.14
2017-03-16T14:31:33.091Z,44.94
2017-03-16T14:32:42.003Z,45.04
2017-03-16T14:33:50.913Z,44.48
2017-03-16T14:35:00.145Z,44.68
2017-03-16T14:36:09.306Z,44.56
2017-03-16T14:37:18.542Z,45.32
2017-03-16T14:38:27.450Z,45.14
2017-03-16T14:39:36.684Z,45.52
2017-03-16T14:40:45.598Z,45.14
2017-03-16T14:41:54.709Z,44.84
2017-03-16T14:43:03.617Z,45.04
2017-03-16T14:44:12.526Z,45.23
2017-03-16T14:45:21.758Z,45.42
2017-03-16T14:46:30.666Z,46
2017-03-16T14:47:39.777Z,45.23
2017-03-16T14:48:48.696Z,46.38
2017-03-16T14:49:57.604Z,46.65
2017-03-16T14:51:06.840Z,46.07
2017-03-16T14:52:15.751Z,45.61
2017-03-16T14:53:25.232Z,45.42
2017-03-16T14:54:34.223Z,45.61